Kenilworth, NJ (07033)

12:18 PM EST on February 23, 2017 (GMT -0500)
Meyer & Depew Co. Headquarters | | Change Station

Elev 69 ft 40.68 °N, 74.30 °W | Updated 28 seconds ago

Overcast
Overcast
57.2 °F
Feels Like 57.2 °F
N
7.0
Wind Variable Wind from WSW

Today
High -- | Low -- °F
--% Chance of Precip.
Yesterday
High -- | Low -- °F
Precip. -- in
Pressure 29.87 in
Visibility 3.0 miles
Clouds Mostly Cloudy 600 ft
Overcast 1000 ft
Dew Point 48 °F
Humidity 73%
Rainfall 0.00 in
Snow Depth Not available.
6:39 AM 5:41 PM
Waning Crescent, 9% visible
METAR KEWR 231651Z 24010KT 3SM BR BKN006 OVC010 12/10 A2987 RMK AO2 SFC VIS 5 SLP115 T01220100
Pressure 29.87 in
Visibility 3.0 miles
Clouds Mostly Cloudy 600 ft
Overcast 1000 ft
Dew Point 48 °F
Humidity 73%
Rainfall 0.00 in
Snow Depth Not available.
6:39 AM 5:41 PM
Waning Crescent, 9% visible
METAR KEWR 231651Z 24010KT 3SM BR BKN006 OVC010 12/10 A2987 RMK AO2 SFC VIS 5 SLP115 T01220100

Get Your Daily Forecast Email!

Thanks for signing up!

Be on the lookout for a verification email in your inbox.

You'll start receiving the daily forecast at 8 AM.

×

10-Day Weather Forecast

Almanac

Astronomy

Feb. 23, 2017 Rise Set
Actual Time
Civil Twilight
Nautical Twilight
Astronomical Twilight
Moon
Length of Visible Light
Length of Day
Tomorrow will be .
, % of the Moon is Illuminated

Today's Extremes

State Highs State Lows

Community

WunderPhotos

Upload Photos

1,962,540 photos uploaded!

WunderBlog® & News

Nearby

Air Quality

  Air Quality AQ Index Pollutant
Not available.

Snow Depth

Station Depth Elevation

Earthquake Activity

City Distance Mag. Time & Date
Minimum magnitude displayed is 2.5.

Coastal Water Temperatures

Place Temperature

Stations

Nearby Weather Stations

Station Location Temp. Windchill Dew Point Humidity Wind Precip. Elev Updated Type
                   

Watches & Warnings

There are currently no watches in effect.